Time;durP1;ratioP1;P1;durP2;ratioP2;P2;SDS_P1;SDS_P2;PMS_P1;PMS_P2;Temp;Humidity;BMP_temperature;BMP_pressure;BME280_temperature;BME280_humidity;BME280_pressure;Samples;Min_cycle;Max_cycle;Signal;HPM_P1;HPM_P2
2022/01/18 00:02:04;;;;;;;4.40;0.88;;;;;;;5.01;100.00;103230.03;6321642;28;20058;-76
2022/01/18 00:05:07;;;;;;;6.43;0.65;;;;;;;5.05;100.00;103231.81;6321270;28;20055;-75
2022/01/18 00:08:08;;;;;;;2.15;0.90;;;;;;;5.09;100.00;103231.88;6321974;28;20048;-76
2022/01/18 00:11:09;;;;;;;2.15;0.40;;;;;;;5.12;100.00;103235.34;6320586;28;20433;-77
2022/01/18 00:14:22;;;;;;;2.97;1.08;;;;;;;5.11;100.00;103226.66;6321290;28;20712;-76
2022/01/18 00:17:40;;;;;;;1.65;0.70;;;;;;;5.07;100.00;103225.75;6320957;28;20052;-76
2022/01/18 00:20:53;;;;;;;1.95;0.38;;;;;;;5.03;100.00;103230.91;6320305;28;20503;-77
2022/01/18 00:23:57;;;;;;;1.80;0.75;;;;;;;5.04;100.00;103232.66;6320978;28;20055;-76
2022/01/18 00:26:58;;;;;;;2.17;0.75;;;;;;;5.02;100.00;103226.56;6323667;28;20093;-76
2022/01/18 00:30:12;;;;;;;4.68;0.80;;;;;;;5.01;100.00;103230.91;6325027;28;20060;-77
2022/01/18 00:33:20;;;;;;;0.57;0.38;;;;;;;4.98;100.00;103233.47;6326692;28;20052;-77
2022/01/18 00:36:26;;;;;;;1.98;0.55;;;;;;;4.99;100.00;103234.34;6325693;28;20493;-77
2022/01/18 00:39:28;;;;;;;9.18;1.00;;;;;;;5.01;100.00;103243.06;6325619;28;20052;-77
2022/01/18 00:42:30;;;;;;;3.92;0.68;;;;;;;4.98;100.00;103246.50;6325045;28;20503;-76
2022/01/18 00:45:31;;;;;;;0.82;0.50;;;;;;;4.97;100.00;103238.69;6325602;28;20044;-76
2022/01/18 00:48:35;;;;;;;2.58;0.52;;;;;;;4.97;100.00;103246.50;6325300;28;20044;-76
2022/01/18 00:51:39;;;;;;;2.45;0.63;;;;;;;4.98;100.00;103248.25;6324939;28;20100;-74
2022/01/18 00:54:44;;;;;;;1.58;0.63;;;;;;;5.01;100.00;103253.50;6325185;28;20055;-74
2022/01/18 00:57:45;;;;;;;9.07;0.95;;;;;;;4.99;100.00;103257.78;6328338;28;20070;-74
2022/01/18 01:00:47;;;;;;;0.88;0.40;;;;;;;4.98;100.00;103261.28;6337067;28;20054;-74
2022/01/18 01:03:51;;;;;;;0.88;0.60;;;;;;;4.98;100.00;103258.66;6335494;28;20043;-74
2022/01/18 01:06:52;;;;;;;2.33;0.50;;;;;;;4.97;100.00;103257.78;6351427;28;20075;-74
2022/01/18 01:09:54;;;;;;;7.20;0.55;;;;;;;4.99;100.00;103260.41;6349243;28;20506;-74
2022/01/18 01:12:56;;;;;;;4.60;0.70;;;;;;;4.99;100.00;103265.63;6337102;28;20518;-75
2022/01/18 01:16:08;;;;;;;3.97;0.55;;;;;;;5.00;100.00;103262.19;6346649;28;20044;-74
2022/01/18 01:19:47;;;;;;;2.50;0.63;;;;;;;4.99;100.00;103270.81;6346727;28;20130;-75
2022/01/18 01:33:21;;;;;;;;;;;;;;;4.84;100.00;103258.50;6325350;28;20044;-77
2022/01/18 01:36:44;;;;;;;2.03;0.77;;;;;;;4.79;100.00;103261.06;6324391;28;19919;-77
2022/01/18 01:43:18;;;;;;;1.25;1.02;;;;;;;4.75;100.00;103254.06;6323918;28;20055;-75
2022/01/18 01:46:19;;;;;;;2.47;0.80;;;;;;;4.75;100.00;103258.41;6325042;28;20460;-75
2022/01/18 01:49:23;;;;;;;5.15;2.00;;;;;;;4.77;100.00;103256.72;6323765;28;20055;-75
2022/01/18 01:52:26;;;;;;;3.13;0.40;;;;;;;4.72;100.00;103255.75;6323453;28;20158;-74
2022/01/18 01:55:28;;;;;;;2.28;0.47;;;;;;;4.71;100.00;103254.03;6323612;28;20056;-74
2022/01/18 01:58:29;;;;;;;0.77;0.30;;;;;;;4.71;100.00;103256.63;6323700;28;20423;-75
2022/01/18 02:01:38;;;;;;;1.13;0.55;;;;;;;4.68;100.00;103257.50;6322939;28;20056;-75
2022/01/18 02:04:40;;;;;;;4.28;1.42;;;;;;;4.69;100.00;103268.78;6338565;28;20055;-75
2022/01/18 02:07:42;;;;;;;0.63;0.40;;;;;;;4.68;100.00;103267.00;6323432;28;20422;-75
2022/01/18 02:10:44;;;;;;;1.75;0.40;;;;;;;4.65;100.00;103267.00;6322449;28;20117;-75
2022/01/18 02:13:48;;;;;;;2.97;0.57;;;;;;;4.63;100.00;103273.88;6323314;28;20048;-75
2022/01/18 02:23:32;;;;;;;3.00;0.55;;;;;;;4.64;100.00;103273.94;6305136;28;20583;-74
2022/01/18 02:26:34;;;;;;;5.78;0.38;;;;;;;4.63;100.00;103271.28;6322987;28;20044;-75
2022/01/18 02:29:35;;;;;;;0.50;0.38;;;;;;;4.66;100.00;103263.53;6323033;28;20411;-74
2022/01/18 02:32:37;;;;;;;3.97;0.50;;;;;;;4.63;100.00;103255.66;6322523;28;20044;-75
2022/01/18 02:35:39;;;;;;;5.18;0.73;;;;;;;4.62;100.00;103246.97;6340967;28;20047;-75
2022/01/18 02:38:41;;;;;;;7.00;0.52;;;;;;;4.61;100.00;103245.25;6348013;28;20051;-75
2022/01/18 02:41:42;;;;;;;3.88;0.80;;;;;;;4.67;100.00;103250.50;6347563;28;20544;-75
2022/01/18 02:44:44;;;;;;;4.68;0.40;;;;;;;4.61;100.00;103242.63;6348014;28;20047;-74
2022/01/18 02:47:46;;;;;;;2.60;0.80;;;;;;;4.60;100.00;103247.84;6347796;28;20047;-75
2022/01/18 02:50:49;;;;;;;4.80;0.28;;;;;;;4.59;100.00;103257.38;6346683;28;20055;-75
2022/01/18 02:54:00;;;;;;;4.30;0.40;;;;;;;4.56;100.00;103253.00;6349070;28;20059;-75
2022/01/18 02:57:04;;;;;;;0.47;0.20;;;;;;;4.58;100.00;103256.47;6347800;28;20040;-74
2022/01/18 03:00:17;;;;;;;7.35;0.70;;;;;;;4.62;100.00;103259.13;6334201;28;20055;-75
2022/01/18 03:03:21;;;;;;;0.90;0.38;;;;;;;4.62;100.00;103262.59;6331088;28;20121;-74
2022/01/18 03:06:24;;;;;;;2.47;0.50;;;;;;;4.65;100.00;103262.66;6328325;28;20229;-74
2022/01/18 03:09:25;;;;;;;0.32;0.20;;;;;;;4.69;100.00;103255.75;6332380;28;20048;-74
2022/01/18 03:12:27;;;;;;;1.58;0.32;;;;;;;4.69;100.00;103261.84;6336794;28;20051;-74
2022/01/18 03:15:28;;;;;;;9.63;0.38;;;;;;;4.72;100.00;103263.59;6339669;28;20418;-74
2022/01/18 03:18:30;;;;;;;3.88;0.45;;;;;;;4.75;100.00;103259.28;6346995;28;20055;-73
2022/01/18 03:21:33;;;;;;;10.98;0.55;;;;;;;4.77;100.00;103267.13;6346324;28;20043;-74
2022/01/18 03:24:54;;;;;;;0.95;0.60;;;;;;;4.73;100.00;103271.44;6347006;28;20067;-74
2022/01/18 03:28:07;;;;;;;0.13;0.13;;;;;;;4.75;100.00;103272.31;6347256;28;20048;-75
2022/01/18 03:31:08;;;;;;;0.57;0.30;;;;;;;4.77;100.00;103269.75;6344717;28;20414;-75
2022/01/18 03:34:10;;;;;;;2.17;0.30;;;;;;;4.78;100.00;103266.28;6336742;28;20039;-75
2022/01/18 03:37:12;;;;;;;0.20;0.20;;;;;;;4.82;100.00;103273.28;6346979;28;20422;-74
2022/01/18 03:40:14;;;;;;;11.38;0.75;;;;;;;4.84;100.00;103274.16;6346002;28;20052;-74
2022/01/18 03:43:15;;;;;;;0.85;0.15;;;;;;;4.83;100.00;103273.28;6346663;28;20044;-73
2022/01/18 03:46:17;;;;;;;1.90;0.47;;;;;;;4.84;100.00;103277.63;6346520;28;20059;-75
2022/01/18 03:49:20;;;;;;;1.35;0.40;;;;;;;4.84;100.00;103279.34;6346737;28;20079;-74
2022/01/18 03:52:22;;;;;;;2.05;1.42;;;;;;;4.84;100.00;103287.19;6346444;28;20048;-74
2022/01/18 03:55:24;;;;;;;3.72;0.85;;;;;;;4.83;100.00;103288.03;6346821;28;20048;-74
2022/01/18 03:58:26;;;;;;;0.30;0.30;;;;;;;4.84;100.00;103281.97;6346475;28;20077;-74
2022/01/18 04:01:27;;;;;;;0.70;0.60;;;;;;;4.88;100.00;103281.16;6349524;28;20051;-75
2022/01/18 04:04:28;;;;;;;1.55;0.32;;;;;;;4.85;100.00;103278.50;6333127;28;20047;-74
2022/01/18 04:07:31;;;;;;;0.30;0.30;;;;;;;4.83;100.00;103278.50;6326933;28;20048;-74
2022/01/18 04:10:33;;;;;;;1.40;0.47;;;;;;;4.83;100.00;103285.44;6326740;28;20138;-75
2022/01/18 04:13:34;;;;;;;0.57;0.47;;;;;;;4.84;100.00;103289.78;6327549;28;20059;-75
2022/01/18 04:16:43;;;;;;;1.67;0.93;;;;;;;4.79;100.00;103292.34;6326320;28;20049;-75
2022/01/18 04:29:42;;;;;;;1.45;1.00;;;;;;;4.81;100.00;103308.88;6325557;28;20523;-75
2022/01/18 04:32:44;;;;;;;2.58;1.15;;;;;;;4.79;100.00;103304.50;6325830;28;20048;-75
2022/01/18 04:35:45;;;;;;;1.50;1.08;;;;;;;4.79;100.00;103309.69;6325664;28;20055;-74
2022/01/18 04:38:48;;;;;;;0.57;0.50;;;;;;;4.77;100.00;103299.28;6325829;28;20051;-74
2022/01/18 04:41:49;;;;;;;2.58;1.00;;;;;;;4.81;100.00;103295.84;6324834;28;20048;-74
2022/01/18 04:48:27;;;;;;;3.65;1.67;;;;;;;4.84;100.00;103297.59;6325901;28;20048;-74
2022/01/18 04:51:29;;;;;;;0.70;0.60;;;;;;;4.88;100.00;103304.59;6324844;28;20058;-76
2022/01/18 04:54:31;;;;;;;1.27;1.05;;;;;;;4.87;100.00;103301.97;6325345;28;20047;-75
2022/01/18 05:00:54;;;;;;;2.05;1.00;;;;;;;4.90;100.00;103318.50;6336127;28;20060;-76
2022/01/18 05:03:56;;;;;;;5.78;0.95;;;;;;;4.93;100.00;103325.50;6337539;28;20057;-74
2022/01/18 05:07:00;;;;;;;1.65;1.05;;;;;;;4.92;100.00;103326.34;6350442;28;20048;-74
2022/01/18 05:10:04;;;;;;;2.45;0.98;;;;;;;4.93;100.00;103325.50;6344033;28;20575;-75
2022/01/18 05:13:14;;;;;;;1.65;1.10;;;;;;;4.92;100.00;103326.34;6339107;28;20048;-75
2022/01/18 05:16:40;;;;;;;2.90;1.13;;;;;;;4.94;100.00;103332.44;6350034;28;20427;-75
2022/01/18 05:19:48;;;;;;;2.40;1.08;;;;;;;4.96;100.00;103342.03;6343853;28;20085;-75
2022/01/18 05:23:01;;;;;;;2.67;1.55;;;;;;;5.01;100.00;103345.56;6342830;28;20055;-74
2022/01/18 05:26:04;;;;;;;14.98;1.88;;;;;;;5.01;100.00;103348.19;6350170;28;20455;-74
2022/01/18 05:29:05;;;;;;;2.03;1.00;;;;;;;5.08;100.00;103342.16;6339936;28;20503;-75
2022/01/18 05:32:07;;;;;;;3.63;1.60;;;;;;;5.05;100.00;103342.16;6346899;28;20052;-75
2022/01/18 05:35:09;;;;;;;4.18;1.45;;;;;;;5.04;100.00;103335.19;6326144;28;20400;-74
2022/01/18 05:38:10;;;;;;;2.78;1.23;;;;;;;5.01;100.00;103342.97;6324189;28;20048;-74
2022/01/18 05:41:13;;;;;;;5.43;1.52;;;;;;;4.99;100.00;103338.56;6323427;28;20056;-75
2022/01/18 05:44:14;;;;;;;2.70;1.30;;;;;;;4.99;100.00;103346.41;6324371;28;20055;-74
2022/01/18 05:47:16;;;;;;;3.00;1.73;;;;;;;4.95;100.00;103339.41;6323727;28;20047;-74
2022/01/18 05:50:17;;;;;;;3.05;1.60;;;;;;;4.95;100.00;103345.50;6322956;28;20044;-73
2022/01/18 05:53:18;;;;;;;7.50;2.10;;;;;;;4.93;100.00;103349.81;6323667;28;20048;-74
2022/01/18 05:56:21;;;;;;;4.40;2.25;;;;;;;4.95;100.00;103342.91;6324275;28;20047;-75
2022/01/18 05:59:24;;;;;;;5.38;2.22;;;;;;;4.95;100.00;103355.94;6324651;28;20048;-75
2022/01/18 06:02:36;;;;;;;4.95;2.47;;;;;;;4.97;100.00;103353.34;6323091;28;20052;-75
2022/01/18 06:08:56;;;;;;;6.00;2.33;;;;;;;4.97;100.00;103364.63;6321428;28;20130;-75
2022/01/18 06:11:59;;;;;;;5.25;2.35;;;;;;;4.93;100.00;103356.75;6348273;27;20046;-74
2022/01/18 06:15:00;;;;;;;8.05;2.72;;;;;;;4.94;100.00;103363.72;6361031;27;20039;-75
2022/01/18 06:18:02;;;;;;;7.53;2.75;;;;;;;4.95;100.00;103368.97;6364590;27;20052;-75
2022/01/18 06:21:04;;;;;;;5.63;3.33;;;;;;;4.97;100.00;103355.94;6338467;27;20113;-77
2022/01/18 06:24:07;;;;;;;5.10;2.35;;;;;;;4.95;100.00;103368.97;6339898;27;20055;-76
2022/01/18 06:27:10;;;;;;;6.97;2.72;;;;;;;4.96;100.00;103368.09;6333897;28;20040;-76
2022/01/18 06:30:12;;;;;;;7.15;2.85;;;;;;;4.96;100.00;103372.44;6342792;27;20075;-76
2022/01/18 06:33:14;;;;;;;5.15;2.30;;;;;;;4.98;100.00;103373.31;6330280;28;20495;-76
2022/01/18 06:36:15;;;;;;;4.35;1.88;;;;;;;4.99;100.00;103372.44;6345370;28;20040;-76
2022/01/18 06:39:16;;;;;;;5.93;3.20;;;;;;;4.98;100.00;103370.72;6364015;27;20058;-76
2022/01/18 06:42:20;;;;;;;7.10;3.63;;;;;;;5.01;100.00;103379.44;6372602;27;20043;-77
2022/01/18 06:45:21;;;;;;;5.97;3.10;;;;;;;5.00;100.00;103388.13;6373188;27;20518;-76
2022/01/18 06:48:23;;;;;;;10.43;4.50;;;;;;;5.02;100.00;103388.13;6373365;27;20050;-76
2022/01/18 06:51:24;;;;;;;5.53;2.50;;;;;;;5.01;100.00;103396.81;6372488;27;20054;-76
2022/01/18 06:54:25;;;;;;;5.13;2.58;;;;;;;5.01;100.00;103395.09;6373378;27;20050;-76
2022/01/18 06:57:28;;;;;;;5.18;3.08;;;;;;;5.03;100.00;103395.97;6336748;27;20044;-77
2022/01/18 07:00:30;;;;;;;5.63;3.17;;;;;;;5.08;100.00;103391.69;6334429;28;20043;-77
2022/01/18 07:03:31;;;;;;;12.05;3.78;;;;;;;5.07;100.00;103392.53;6330628;28;20044;-77
2022/01/18 07:06:33;;;;;;;10.02;3.97;;;;;;;5.04;100.00;103383.81;6328904;28;20048;-77
2022/01/18 07:09:35;;;;;;;6.53;3.55;;;;;;;5.12;100.00;103390.00;6323461;28;20505;-77
2022/01/18 07:12:38;;;;;;;8.32;3.90;;;;;;;5.06;100.00;103393.41;6336742;28;20047;-77
2022/01/18 07:15:39;;;;;;;16.63;5.32;;;;;;;5.06;100.00;103397.75;6339639;28;20051;-76
2022/01/18 07:18:41;;;;;;;11.20;4.63;;;;;;;5.08;100.00;103398.63;6338567;28;20491;-76
2022/01/18 07:21:42;;;;;;;12.95;4.65;;;;;;;5.08;100.00;103409.06;6346313;28;20372;-77
2022/01/18 07:24:45;;;;;;;8.27;4.18;;;;;;;5.08;100.00;103411.66;6346802;28;20533;-77
2022/01/18 07:27:48;;;;;;;11.80;4.05;;;;;;;5.13;100.00;103409.97;6345207;28;20061;-76
2022/01/18 07:30:50;;;;;;;5.82;3.55;;;;;;;5.14;100.00;103413.50;6346301;28;20051;-77
2022/01/18 07:33:51;;;;;;;10.10;5.07;;;;;;;5.12;100.00;103417.78;6343459;28;20056;-77
2022/01/18 07:36:53;;;;;;;13.88;5.63;;;;;;;5.12;100.00;103412.56;6338143;27;20047;-77
2022/01/18 07:39:54;;;;;;;12.65;4.18;;;;;;;5.13;100.00;103427.34;6345880;28;20521;-77
2022/01/18 07:42:59;;;;;;;10.18;3.92;;;;;;;5.13;100.00;103424.75;6346844;28;20052;-77
2022/01/18 07:46:01;;;;;;;8.65;4.13;;;;;;;5.11;100.00;103424.75;6346684;28;20047;-77
2022/01/18 07:49:02;;;;;;;11.30;3.78;;;;;;;5.08;100.00;103422.97;6346577;28;20206;-76
2022/01/18 07:52:04;;;;;;;15.70;3.63;;;;;;;5.07;100.00;103429.03;6345848;28;20078;-76
2022/01/18 07:55:06;;;;;;;13.48;4.45;;;;;;;5.14;100.00;103430.00;6337216;28;20055;-77
2022/01/18 07:58:09;;;;;;;13.52;4.50;;;;;;;5.13;100.00;103440.38;6334335;28;20510;-77
2022/01/18 08:01:11;;;;;;;16.90;3.83;;;;;;;5.11;100.00;103436.91;6344617;28;20055;-77
2022/01/18 08:04:12;;;;;;;11.20;3.13;;;;;;;5.11;100.00;103447.31;6345133;28;20048;-76
2022/01/18 08:07:13;;;;;;;12.30;4.07;;;;;;;5.11;100.00;103447.31;6346007;28;20443;-76
2022/01/18 08:10:17;;;;;;;9.63;3.95;;;;;;;5.14;100.00;103444.78;6346330;28;20051;-76
2022/01/18 08:13:24;;;;;;;6.18;3.30;;;;;;;5.14;100.00;103445.63;6348613;28;20573;-76
2022/01/18 08:16:47;;;;;;;11.90;3.92;;;;;;;5.15;100.00;103455.19;6347277;28;20605;-76
2022/01/18 08:19:49;;;;;;;19.02;4.25;;;;;;;5.18;100.00;103455.25;6345981;28;20178;-76
2022/01/18 08:22:50;;;;;;;4.90;2.92;;;;;;;5.18;100.00;103450.03;6345937;28;20054;-76
2022/01/18 08:25:51;;;;;;;5.22;2.97;;;;;;;5.25;100.00;103454.47;6346482;28;20039;-76
2022/01/18 08:28:54;;;;;;;14.88;4.30;;;;;;;5.20;100.00;103461.34;6343816;28;20059;-76
2022/01/18 08:31:55;;;;;;;15.93;4.90;;;;;;;5.20;100.00;103453.53;6324068;28;20511;-77
2022/01/18 08:34:57;;;;;;;15.77;3.17;;;;;;;5.20;100.00;103456.13;6321131;28;20514;-77
2022/01/18 08:37:58;;;;;;;11.00;3.45;;;;;;;5.25;100.00;103462.28;6320729;28;20051;-76
2022/01/18 08:41:00;;;;;;;8.18;3.08;;;;;;;5.26;100.00;103457.94;6319992;28;20609;-77
2022/01/18 08:44:03;;;;;;;12.32;5.35;;;;;;;5.26;100.00;103458.81;6320517;28;20448;-77
2022/01/18 08:47:04;;;;;;;12.32;4.45;;;;;;;5.26;100.00;103457.94;6321692;28;20047;-77
2022/01/18 08:50:07;;;;;;;6.18;3.42;;;;;;;5.23;100.00;103464.00;6324334;28;20048;-76
2022/01/18 08:53:09;;;;;;;10.98;4.07;;;;;;;5.25;100.00;103462.28;6326058;28;20487;-76
2022/01/18 08:56:10;;;;;;;9.57;3.53;;;;;;;5.32;100.00;103461.50;6325174;28;20392;-78
2022/01/18 08:59:13;;;;;;;8.80;3.28;;;;;;;5.33;100.00;103452.81;6326216;28;20044;-79
2022/01/18 09:02:15;;;;;;;9.40;3.03;;;;;;;5.35;100.00;103466.75;6324560;28;20059;-78
2022/01/18 09:05:17;;;;;;;12.50;3.38;;;;;;;5.37;100.00;103464.16;6323747;28;20106;-76
2022/01/18 09:08:19;;;;;;;25.05;4.63;;;;;;;5.43;100.00;103463.38;6326487;28;20055;-77
2022/01/18 09:11:23;;;;;;;13.23;4.60;;;;;;;5.43;100.00;103465.97;6324700;28;20621;-77
2022/01/18 09:14:26;;;;;;;9.60;4.43;;;;;;;5.47;100.00;103462.53;6324893;28;20510;-80
2022/01/18 09:17:28;;;;;;;9.38;3.80;;;;;;;5.49;100.00;103469.50;6324800;28;20040;-77
2022/01/18 09:20:31;;;;;;;9.10;4.10;;;;;;;5.53;100.00;103462.59;6323787;28;20080;-77
2022/01/18 09:23:32;;;;;;;13.05;3.33;;;;;;;5.51;100.00;103467.81;6325036;28;20055;-77
2022/01/18 09:26:35;;;;;;;7.25;2.75;;;;;;;5.54;100.00;103472.16;6324658;28;20100;-76
2022/01/18 09:29:39;;;;;;;10.77;4.70;;;;;;;5.66;100.00;103474.06;6325866;28;20126;-77
2022/01/18 09:32:41;;;;;;;6.53;3.05;;;;;;;5.62;100.00;103462.72;6324078;28;20059;-76
2022/01/18 09:35:42;;;;;;;11.40;3.53;;;;;;;5.62;100.00;103478.34;6324557;28;20048;-77
2022/01/18 09:38:44;;;;;;;15.13;4.20;;;;;;;5.73;100.00;103478.50;6324029;28;20052;-77
2022/01/18 09:41:50;;;;;;;7.00;3.58;;;;;;;5.70;100.00;103473.22;6323603;28;20051;-77
2022/01/18 09:44:57;;;;;;;7.82;2.58;;;;;;;5.79;100.00;103476.81;6324296;28;20048;-76
2022/01/18 09:47:59;;;;;;;12.15;3.60;;;;;;;5.75;100.00;103474.16;6324475;28;20044;-76
2022/01/18 09:51:01;;;;;;;10.63;3.67;;;;;;;5.74;100.00;103483.72;6323302;28;20470;-76
2022/01/18 09:54:03;;;;;;;21.65;3.95;;;;;;;5.75;100.00;103484.59;6324775;28;20051;-76
2022/01/18 09:57:05;;;;;;;7.43;3.58;;;;;;;5.79;100.00;103489.00;6323980;28;20044;-76
2022/01/18 10:00:09;;;;;;;10.32;3.25;;;;;;;5.84;100.00;103490.78;6344047;28;20052;-75
2022/01/18 10:03:24;;;;;;;12.23;2.55;;;;;;;5.90;100.00;103504.75;6349402;28;20056;-76
2022/01/18 10:06:26;;;;;;;6.22;2.38;;;;;;;5.93;100.00;103495.25;6348881;28;20043;-76
2022/01/18 10:09:28;;;;;;;7.10;2.50;;;;;;;5.98;100.00;103504.00;6349131;27;20415;-75
2022/01/18 10:12:29;;;;;;;12.48;3.25;;;;;;;6.01;100.00;103500.56;6351585;28;20044;-74
2022/01/18 10:15:32;;;;;;;10.05;2.22;;;;;;;6.03;100.00;103496.22;6348683;28;20052;-74
2022/01/18 10:18:43;;;;;;;10.02;2.55;;;;;;;6.01;100.00;103501.44;6349211;28;20052;-74
2022/01/18 10:21:49;;;;;;;7.35;3.47;;;;;;;6.05;100.00;103502.34;6350428;28;20406;-75
2022/01/18 10:24:53;;;;;;;9.40;3.60;;;;;;;6.05;100.00;103502.34;6350529;28;20043;-75
2022/01/18 10:27:56;;;;;;;24.33;3.25;;;;;;;6.04;100.00;103508.41;6349941;28;20131;-75
2022/01/18 10:31:03;;;;;;;8.05;3.15;;;;;;;6.06;100.00;103504.97;6324210;28;20052;-74
2022/01/18 10:34:25;;;;;;;9.20;2.67;;;;;;;6.13;100.00;103507.63;6324847;28;20465;-74
2022/01/18 10:37:29;;;;;;;4.80;2.22;;;;;;;6.16;100.00;103505.06;6324356;28;20424;-75
2022/01/18 10:40:34;;;;;;;6.07;2.13;;;;;;;6.16;100.00;103494.59;6330214;28;20487;-76
2022/01/18 10:43:35;;;;;;;4.95;1.90;;;;;;;6.19;100.00;103502.47;6324864;28;20044;-75
2022/01/18 10:46:41;;;;;;;8.25;1.95;;;;;;;6.17;100.00;103505.06;6324477;28;20067;-76
2022/01/18 10:49:47;;;;;;;4.97;2.05;;;;;;;6.20;100.00;103501.59;6324174;28;20063;-76
2022/01/18 10:52:49;;;;;;;4.25;2.03;;;;;;;6.27;100.00;103496.47;6324911;28;20066;-75
2022/01/18 10:56:11;;;;;;;8.35;2.22;;;;;;;6.25;100.00;103494.69;6324611;28;20048;-75
2022/01/18 10:59:21;;;;;;;4.22;1.70;;;;;;;6.29;100.00;103501.69;6329936;28;20393;-74
2022/01/18 11:02:24;;;;;;;4.28;2.00;;;;;;;6.36;100.00;103495.69;6349139;28;20221;-75
2022/01/18 11:05:27;;;;;;;3.67;1.95;;;;;;;6.39;100.00;103500.03;6352321;28;20067;-78
2022/01/18 11:08:28;;;;;;;4.57;1.63;;;;;;;6.43;100.00;103496.59;6352911;28;20107;-77
2022/01/18 11:11:30;;;;;;;4.90;2.10;;;;;;;6.44;100.00;103493.97;6346788;28;20055;-76
2022/01/18 11:14:33;;;;;;;10.52;1.75;;;;;;;6.47;100.00;103487.91;6347575;28;20048;-77
2022/01/18 11:17:40;;;;;;;9.15;1.90;;;;;;;6.50;100.00;103491.44;6347695;28;20113;-77
2022/01/18 11:20:43;;;;;;;8.45;2.75;;;;;;;6.45;100.00;103481.78;6346524;28;20052;-77
2022/01/18 11:23:46;;;;;;;5.07;1.45;;;;;;;6.40;100.00;103483.50;6347565;28;20054;-77
2022/01/18 11:26:48;;;;;;;3.15;1.00;;;;;;;6.44;100.00;103483.53;6347114;28;20055;-77
2022/01/18 11:29:50;;;;;;;3.53;1.45;;;;;;;6.47;100.00;103472.25;6328245;28;20620;-77
2022/01/18 11:32:55;;;;;;;4.43;1.88;;;;;;;6.41;100.00;103474.81;6322557;28;20059;-79
2022/01/18 11:36:02;;;;;;;2.05;1.10;;;;;;;6.40;100.00;103473.03;6323593;28;20047;-77
2022/01/18 11:39:07;;;;;;;2.40;1.98;;;;;;;6.45;100.00;103463.50;6334701;28;20052;-79
2022/01/18 11:42:11;;;;;;;5.35;1.40;;;;;;;6.46;100.00;103473.97;6345277;28;20043;-76
2022/01/18 11:45:39;;;;;;;5.82;0.80;;;;;;;6.48;100.00;103468.75;6335941;28;20044;-76
2022/01/18 11:48:46;;;;;;;1.73;1.00;;;;;;;6.48;100.00;103463.53;6321506;28;20048;-77
2022/01/18 11:51:52;;;;;;;2.35;1.02;;;;;;;6.51;100.00;103468.78;6320632;28;20052;-76
2022/01/18 11:54:58;;;;;;;6.63;1.17;;;;;;;6.49;100.00;103467.88;6341280;28;20051;-77
2022/01/18 11:58:11;;;;;;;4.63;0.80;;;;;;;6.52;100.00;103454.84;6345854;28;20043;-76
2022/01/18 12:01:13;;;;;;;2.03;0.88;;;;;;;6.53;100.00;103454.84;6320605;28;20052;-76
2022/01/18 12:05:04;;;;;;;5.45;0.73;;;;;;;6.59;100.00;103461.88;6319348;28;20550;-77
2022/01/18 12:08:05;;;;;;;1.48;0.95;;;;;;;6.59;100.00;103451.44;6320940;28;20055;-76
2022/01/18 12:11:10;;;;;;;2.45;0.88;;;;;;;6.68;100.00;103456.72;6320140;28;20051;-77
2022/01/18 12:14:11;;;;;;;4.43;0.40;;;;;;;6.65;100.00;103458.44;6320915;28;20075;-76
2022/01/18 12:17:14;;;;;;;4.00;0.85;;;;;;;6.60;100.00;103459.28;6321180;28;20043;-76
2022/01/18 12:20:44;;;;;;;6.10;0.80;;;;;;;6.49;100.00;103457.44;6320090;28;20153;-76
2022/01/18 12:23:46;;;;;;;1.00;0.22;;;;;;;6.43;100.00;103449.56;6339178;28;20044;-76
2022/01/18 12:26:58;;;;;;;6.07;0.85;;;;;;;6.42;100.00;103443.47;6325455;28;20048;-76
2022/01/18 12:30:39;;;;;;;5.32;0.70;;;;;;;6.42;100.00;103438.25;6325924;28;20127;-76
2022/01/18 12:33:45;;;;;;;5.57;0.63;;;;;;;6.40;100.00;103439.09;6325649;28;20052;-76
2022/01/18 12:36:48;;;;;;;1.90;0.67;;;;;;;6.40;100.00;103441.69;6325294;28;20668;-75
2022/01/18 12:40:05;;;;;;;4.70;0.38;;;;;;;6.34;100.00;103440.78;6324929;28;20048;-76
2022/01/18 12:46:29;;;;;;;10.45;0.90;;;;;;;6.37;100.00;103432.13;6325421;28;20055;-76
2022/01/18 12:49:32;;;;;;;2.42;0.57;;;;;;;6.33;100.00;103426.00;6325380;28;20491;-76
2022/01/18 12:52:47;;;;;;;3.05;0.60;;;;;;;6.39;100.00;103419.94;6325891;22;20056;-76
2022/01/18 12:55:52;;;;;;;7.03;2.67;;;;;;;6.43;100.00;103416.47;6275790;28;20136;-76
2022/01/18 12:58:55;;;;;;;1.65;0.47;;;;;;;6.42;100.00;103409.53;6274986;28;20064;-75
2022/01/18 13:01:57;;;;;;;2.78;0.75;;;;;;;6.46;100.00;103407.81;6275024;28;20083;-76
2022/01/18 13:04:58;;;;;;;1.73;0.50;;;;;;;6.49;100.00;103413.03;6274859;28;20076;-76
2022/01/18 13:08:03;;;;;;;1.80;0.43;;;;;;;6.47;100.00;103402.59;6274545;28;20511;-76
2022/01/18 13:11:04;;;;;;;3.58;0.88;;;;;;;6.51;100.00;103406.97;6274941;28;20060;-75
2022/01/18 13:14:08;;;;;;;7.07;0.70;;;;;;;6.45;100.00;103400.81;6275271;28;20060;-77
2022/01/18 13:24:29;;;;;;;1.80;1.00;;;;;;;6.38;100.00;103404.25;6198546;28;20549;-78
2022/01/18 13:27:37;;;;;;;1.08;0.60;;;;;;;6.35;100.00;103399.88;6275256;28;20053;-78
2022/01/18 13:30:39;;;;;;;4.25;0.77;;;;;;;6.36;100.00;103406.88;6274544;28;20052;-77
2022/01/18 13:33:51;;;;;;;2.47;0.93;;;;;;;6.41;100.00;103399.06;6275193;28;20049;-78
2022/01/18 13:36:55;;;;;;;3.28;1.90;;;;;;;6.35;100.00;103405.97;6276437;28;20045;-79
2022/01/18 13:40:00;;;;;;;9.45;1.45;;;;;;;6.35;100.00;103405.09;6274922;28;20134;-77
2022/01/18 13:43:09;;;;;;;8.68;1.02;;;;;;;6.33;100.00;103404.22;6274677;28;20045;-77
2022/01/18 13:46:10;;;;;;;1.60;0.90;;;;;;;6.30;100.00;103399.84;6276668;28;20056;-76
2022/01/18 13:49:13;;;;;;;4.75;2.00;;;;;;;6.31;100.00;103401.63;6275359;28;20055;-76
2022/01/18 13:52:16;;;;;;;11.45;1.75;;;;;;;6.23;100.00;103405.91;6275117;28;20055;-77
2022/01/18 13:55:26;;;;;;;3.90;1.38;;;;;;;6.20;100.00;103405.00;6276641;28;20059;-76
2022/01/18 13:58:29;;;;;;;10.88;1.90;;;;;;;6.23;100.00;103402.41;6277195;28;20041;-76
2022/01/18 14:01:34;;;;;;;8.77;1.48;;;;;;;6.16;100.00;103401.47;6275543;28;20053;-76
2022/01/18 14:04:36;;;;;;;4.95;1.42;;;;;;;6.17;100.00;103394.53;6275780;28;20428;-76
2022/01/18 14:07:37;;;;;;;5.75;1.25;;;;;;;6.12;100.00;103394.50;6274606;28;20053;-76
2022/01/18 14:10:40;;;;;;;4.57;1.75;;;;;;;6.14;100.00;103394.53;6275741;28;20048;-76
2022/01/18 14:13:42;;;;;;;6.28;1.40;;;;;;;6.13;100.00;103390.13;6274191;28;20049;-76
2022/01/18 14:16:46;;;;;;;7.10;1.58;;;;;;;6.10;100.00;103393.63;6273558;28;20547;-76
2022/01/18 14:19:48;;;;;;;2.13;1.17;;;;;;;6.06;100.00;103394.44;6275593;28;20140;-76
2022/01/18 14:22:54;;;;;;;7.82;3.38;;;;;;;6.05;100.00;103382.28;6274744;28;20060;-76
2022/01/18 14:25:57;;;;;;;3.38;1.50;;;;;;;6.04;100.00;103388.31;6275128;28;20085;-76
2022/01/18 14:29:00;;;;;;;3.25;1.58;;;;;;;6.05;100.00;103387.50;6275069;28;20041;-76
2022/01/18 14:32:04;;;;;;;4.30;1.35;;;;;;;6.00;100.00;103382.22;6275306;28;20048;-76
2022/01/18 14:35:08;;;;;;;6.07;1.50;;;;;;;5.97;100.00;103396.97;6275013;28;20049;-76
2022/01/18 14:38:11;;;;;;;5.35;1.80;;;;;;;6.00;100.00;103397.03;6274685;28;20045;-76
2022/01/18 14:41:20;;;;;;;6.22;2.03;;;;;;;5.94;100.00;103395.22;6274140;28;20084;-76
2022/01/18 14:44:35;;;;;;;2.55;1.90;;;;;;;5.90;100.00;103401.22;6274535;28;20424;-76
2022/01/18 14:47:37;;;;;;;2.90;1.58;;;;;;;5.91;100.00;103391.69;6273178;28;20055;-77
2022/01/18 14:50:40;;;;;;;3.05;1.58;;;;;;;5.91;100.00;103391.69;6272289;28;20598;-77
2022/01/18 14:53:42;;;;;;;2.70;1.92;;;;;;;5.85;100.00;103392.47;6272087;28;20045;-77
2022/01/18 14:56:44;;;;;;;6.80;2.15;;;;;;;5.83;100.00;103387.25;6272737;28;20049;-76
2022/01/18 14:59:46;;;;;;;3.25;1.48;;;;;;;5.81;100.00;103390.72;6271130;28;20053;-77
2022/01/18 15:02:48;;;;;;;4.88;1.90;;;;;;;5.78;100.00;103388.97;6272870;28;20056;-76
2022/01/18 15:05:50;;;;;;;4.55;1.83;;;;;;;5.76;100.00;103392.41;6272409;28;20049;-77
2022/01/18 15:08:51;;;;;;;3.15;1.75;;;;;;;5.78;100.00;103377.66;6270945;28;20056;-76